createdAt,value
2018-06-20T00:05:07.601Z,15.60
2018-06-20T00:07:36.109Z,15.50
2018-06-20T00:12:32.702Z,15.40
2018-06-20T00:17:29.118Z,15.30
2018-06-20T00:19:57.932Z,15.30
2018-06-20T00:22:26.291Z,15.20
2018-06-20T00:24:54.803Z,15.20
2018-06-20T00:34:47.166Z,15.10
2018-06-20T00:42:12.150Z,15.00
2018-06-20T00:44:40.683Z,15.00
2018-06-20T00:47:08.861Z,15.00
2018-06-20T00:49:37.343Z,14.90
2018-06-20T00:52:05.881Z,14.90
2018-06-20T00:54:34.257Z,14.90
2018-06-20T00:57:02.647Z,14.90
2018-06-20T00:59:31.457Z,14.90
2018-06-20T01:01:59.965Z,14.80
2018-06-20T01:04:28.247Z,14.90
2018-06-20T01:06:56.569Z,14.80
2018-06-20T01:11:53.295Z,14.80
2018-06-20T01:14:21.564Z,14.80
2018-06-20T01:19:17.974Z,14.80
2018-06-20T01:21:46.232Z,14.70
2018-06-20T01:24:14.651Z,14.70
2018-06-20T01:29:11.145Z,14.80
2018-06-20T01:31:39.443Z,14.80
2018-06-20T01:34:07.732Z,14.90
2018-06-20T01:36:35.884Z,14.90
2018-06-20T01:39:06.293Z,15.00
2018-06-20T01:41:34.693Z,15.10
2018-06-20T01:44:03.393Z,15.10
2018-06-20T01:48:59.790Z,15.20
2018-06-20T01:51:28.174Z,15.30
2018-06-20T01:56:24.573Z,15.40
2018-06-20T01:58:53.149Z,15.40
2018-06-20T02:01:21.685Z,15.50
2018-06-20T02:03:49.980Z,15.50
2018-06-20T02:06:18.155Z,15.60
2018-06-20T02:08:46.477Z,15.60
2018-06-20T02:11:14.560Z,15.60
2018-06-20T02:16:10.725Z,15.70
2018-06-20T02:18:38.736Z,15.80
2018-06-20T02:23:34.909Z,15.80
2018-06-20T02:26:03.413Z,15.80
2018-06-20T02:28:31.705Z,15.80
2018-06-20T02:31:00.218Z,15.80
2018-06-20T02:38:29.305Z,15.90
2018-06-20T02:45:53.593Z,16.00
2018-06-20T02:48:21.689Z,16.00
2018-06-20T02:50:49.955Z,16.00
2018-06-20T02:53:18.269Z,16.00
2018-06-20T02:55:47.194Z,16.00
2018-06-20T02:58:15.591Z,16.00
2018-06-20T03:00:43.872Z,16.00
2018-06-20T03:05:40.169Z,16.00
2018-06-20T03:08:08.450Z,16.00
2018-06-20T03:10:36.741Z,16.00
2018-06-20T03:13:05.171Z,15.90
2018-06-20T03:15:33.547Z,15.90
2018-06-20T03:20:30.570Z,15.90
2018-06-20T03:22:58.935Z,15.90
2018-06-20T03:25:27.152Z,16.00
2018-06-20T03:27:55.901Z,16.00
2018-06-20T03:30:24.221Z,16.00
2018-06-20T03:32:52.568Z,16.10
2018-06-20T03:35:20.968Z,16.10
2018-06-20T03:37:49.267Z,16.10
2018-06-20T03:40:17.563Z,16.20
2018-06-20T03:45:13.870Z,16.30
2018-06-20T03:47:42.151Z,16.30
2018-06-20T03:50:10.757Z,16.40
2018-06-20T03:52:39.235Z,16.50
2018-06-20T04:00:04.144Z,16.80
2018-06-20T04:05:00.119Z,16.90
2018-06-20T04:12:24.607Z,17.10
2018-06-20T04:17:21.790Z,17.60
2018-06-20T04:19:50.784Z,18.10
2018-06-20T04:22:19.118Z,18.70
2018-06-20T04:27:15.511Z,20.40
2018-06-20T04:32:11.895Z,22.40
2018-06-20T04:37:09.301Z,24.10
2018-06-20T04:42:05.690Z,25.50
2018-06-20T04:49:29.873Z,25.40
2018-06-20T04:54:26.160Z,24.20
2018-06-20T04:56:54.680Z,23.80
2018-06-20T04:59:22.958Z,23.40
2018-06-20T05:01:51.376Z,23.10
2018-06-20T05:04:20.779Z,23.50
2018-06-20T05:06:49.075Z,24.20
2018-06-20T05:11:47.821Z,24.40
2018-06-20T05:16:44.743Z,25.10
2018-06-20T05:19:13.743Z,26.10
2018-06-20T05:21:42.778Z,27.10
2018-06-20T05:24:11.044Z,27.30
2018-06-20T05:26:39.671Z,27.10
2018-06-20T05:29:08.157Z,26.70
2018-06-20T05:34:04.857Z,25.90
2018-06-20T05:39:01.857Z,25.20
2018-06-20T05:46:26.876Z,25.90
2018-06-20T05:48:55.349Z,27.00
2018-06-20T05:53:51.512Z,29.50
2018-06-20T05:56:19.735Z,30.60
2018-06-20T06:01:16.336Z,32.20
2018-06-20T06:03:44.635Z,33.10
2018-06-20T06:13:39.556Z,31.80
2018-06-20T06:18:36.477Z,29.50
2018-06-20T06:21:05.367Z,28.80
2018-06-20T06:26:01.770Z,28.00
2018-06-20T06:35:54.447Z,27.30
2018-06-20T06:38:22.941Z,27.10
2018-06-20T06:43:19.433Z,27.70
2018-06-20T06:45:48.232Z,29.70
2018-06-20T06:48:17.470Z,31.20
2018-06-20T06:50:45.833Z,32.40
2018-06-20T06:53:14.132Z,33.80
2018-06-20T06:55:42.563Z,35.10
2018-06-20T07:08:03.758Z,39.60
2018-06-20T07:10:32.170Z,40.10
2018-06-20T07:13:01.095Z,40.50
2018-06-20T07:15:29.561Z,40.80
2018-06-20T07:17:57.926Z,40.80
2018-06-20T07:20:26.055Z,41.20
2018-06-20T07:32:46.740Z,35.70
2018-06-20T07:35:15.003Z,34.70
2018-06-20T07:37:43.399Z,35.10
2018-06-20T07:40:11.826Z,35.90
2018-06-20T07:42:40.093Z,36.70
2018-06-20T07:47:36.523Z,39.00
2018-06-20T07:50:04.735Z,39.90
2018-06-20T07:52:33.093Z,40.60
2018-06-20T07:57:29.924Z,39.70
2018-06-20T08:00:03.643Z,39.90
2018-06-20T08:02:48.592Z,40.40
2018-06-20T08:05:22.158Z,40.60
2018-06-20T08:07:55.817Z,40.70
2018-06-20T08:11:32.294Z,40.50
2018-06-20T08:14:05.945Z,39.70
2018-06-20T08:16:39.819Z,39.30
2018-06-20T08:19:13.521Z,39.00
2018-06-20T08:21:41.874Z,38.30
2018-06-20T08:31:34.197Z,33.50
2018-06-20T08:34:03.064Z,32.80
2018-06-20T08:36:31.338Z,32.00
2018-06-20T08:38:59.684Z,31.60
2018-06-20T08:41:27.937Z,31.20
2018-06-20T08:43:56.134Z,30.70
2018-06-20T08:48:52.867Z,29.80
2018-06-20T08:51:21.226Z,29.50
2018-06-20T08:53:49.519Z,29.30
2018-06-20T08:56:17.847Z,29.00
2018-06-20T08:58:46.332Z,28.80
2018-06-20T09:01:14.539Z,28.70
2018-06-20T09:03:43.579Z,28.60
2018-06-20T09:06:17.209Z,28.40
2018-06-20T09:08:51.181Z,28.30
2018-06-20T09:11:24.860Z,28.20
2018-06-20T09:13:58.766Z,28.10
2018-06-20T09:16:32.379Z,28.20
2018-06-20T09:19:06.070Z,28.30
2018-06-20T09:24:02.444Z,28.40
2018-06-20T09:33:55.049Z,27.90
2018-06-20T09:36:23.429Z,27.80
2018-06-20T09:38:51.812Z,27.70
2018-06-20T09:46:15.886Z,27.00
2018-06-20T09:48:45.029Z,26.90
2018-06-20T09:51:13.402Z,26.70
2018-06-20T09:53:42.305Z,26.50
2018-06-20T09:56:10.839Z,26.40
2018-06-20T09:58:39.108Z,26.50
2018-06-20T10:01:12.906Z,26.80
2018-06-20T10:03:46.911Z,27.00
2018-06-20T10:06:20.572Z,27.30
2018-06-20T10:09:54.090Z,27.50
2018-06-20T10:13:29.796Z,27.60
2018-06-20T10:15:58.201Z,27.70
2018-06-20T10:18:27.286Z,27.90
2018-06-20T10:20:55.645Z,27.90
2018-06-20T10:23:24.566Z,27.80
2018-06-20T10:25:53.053Z,27.80
2018-06-20T10:28:21.420Z,27.70
2018-06-20T10:30:49.772Z,27.60
2018-06-20T10:33:19.155Z,27.50
2018-06-20T10:35:47.566Z,27.40
2018-06-20T10:40:43.961Z,27.30
2018-06-20T10:45:45.694Z,27.80
2018-06-20T10:48:15.344Z,28.00
2018-06-20T10:50:43.622Z,28.00
2018-06-20T10:53:12.003Z,27.90
2018-06-20T10:55:41.342Z,27.90
2018-06-20T10:58:15.186Z,27.80
2018-06-20T11:00:48.922Z,27.90
2018-06-20T11:03:22.777Z,27.80
2018-06-20T11:08:31.248Z,28.10
2018-06-20T11:11:05.006Z,28.30
2018-06-20T11:13:33.667Z,28.30
2018-06-20T11:16:02.173Z,28.10
2018-06-20T11:18:31.409Z,27.90
2018-06-20T11:21:00.023Z,27.80
2018-06-20T11:23:28.492Z,27.70
2018-06-20T11:25:56.803Z,27.70
2018-06-20T11:28:25.161Z,27.80
2018-06-20T11:30:53.344Z,27.80
2018-06-20T11:33:22.068Z,27.90
2018-06-20T11:38:19.087Z,28.30
2018-06-20T11:43:15.483Z,28.70
2018-06-20T11:45:49.388Z,28.80
2018-06-20T11:50:46.708Z,28.90
2018-06-20T11:53:14.888Z,28.90
2018-06-20T11:55:44.405Z,28.90
2018-06-20T11:58:18.020Z,28.90
2018-06-20T12:00:52.029Z,28.80
2018-06-20T12:03:25.779Z,28.80
2018-06-20T12:08:33.824Z,28.40
2018-06-20T12:11:07.826Z,28.30
2018-06-20T12:13:41.512Z,28.10
2018-06-20T12:16:15.127Z,27.90
2018-06-20T12:18:49.298Z,27.70
2018-06-20T12:21:23.072Z,27.60
2018-06-20T12:23:57.007Z,27.70
2018-06-20T12:26:30.624Z,27.70
2018-06-20T12:29:04.321Z,27.80
2018-06-20T12:31:37.960Z,28.00
2018-06-20T12:34:11.671Z,28.10
2018-06-20T12:36:45.444Z,28.10
2018-06-20T12:39:13.720Z,28.10
2018-06-20T12:41:47.426Z,28.00
2018-06-20T12:44:21.034Z,28.10
2018-06-20T12:47:08.138Z,28.10
2018-06-20T12:49:39.011Z,28.00
2018-06-20T12:52:07.367Z,27.90
2018-06-20T12:54:36.365Z,27.80
2018-06-20T12:57:05.627Z,27.90
2018-06-20T12:59:33.880Z,28.10
2018-06-20T13:02:02.275Z,28.20
2018-06-20T13:06:58.929Z,28.40
2018-06-20T13:09:27.785Z,28.50
2018-06-20T13:14:24.693Z,28.80
2018-06-20T13:16:53.096Z,28.80
2018-06-20T13:19:21.597Z,28.80
2018-06-20T13:21:49.991Z,28.90
2018-06-20T13:24:18.179Z,29.00
2018-06-20T13:29:20.306Z,28.70
2018-06-20T13:31:54.016Z,28.70
2018-06-20T13:37:01.086Z,28.60
2018-06-20T13:39:34.731Z,28.60
2018-06-20T13:42:06.880Z,28.60
2018-06-20T13:44:35.106Z,28.70
2018-06-20T13:48:06.756Z,28.70
2018-06-20T13:50:35.255Z,28.80
2018-06-20T13:53:03.633Z,28.90
2018-06-20T13:55:31.820Z,29.10
2018-06-20T13:58:00.138Z,29.20
2018-06-20T14:02:56.725Z,29.30
2018-06-20T14:05:25.047Z,29.40
2018-06-20T14:07:53.352Z,29.40
2018-06-20T14:10:21.623Z,29.50
2018-06-20T14:12:49.919Z,29.60
2018-06-20T14:17:46.312Z,29.60
2018-06-20T14:20:20.068Z,29.70
2018-06-20T14:22:48.454Z,29.70
2018-06-20T14:25:17.351Z,29.50
2018-06-20T14:27:45.627Z,29.40
2018-06-20T14:32:51.993Z,29.20
2018-06-20T14:35:25.987Z,29.00
2018-06-20T14:37:59.808Z,29.00
2018-06-20T14:41:32.532Z,28.80
2018-06-20T14:44:04.019Z,28.70
2018-06-20T14:46:32.436Z,28.70
2018-06-20T14:49:01.301Z,28.50
2018-06-20T14:51:30.303Z,28.40
2018-06-20T14:53:58.721Z,28.30
2018-06-20T14:56:27.225Z,28.20
2018-06-20T14:58:55.600Z,28.10
2018-06-20T15:01:24.752Z,28.10
2018-06-20T15:03:53.454Z,28.00
2018-06-20T15:06:22.052Z,28.00
2018-06-20T15:08:50.817Z,28.00
2018-06-20T15:11:19.335Z,28.10
2018-06-20T15:13:47.651Z,28.10
2018-06-20T15:16:21.367Z,28.10
2018-06-20T15:21:17.762Z,27.90
2018-06-20T15:26:19.346Z,27.90
2018-06-20T15:28:52.967Z,27.90
2018-06-20T15:31:26.570Z,27.70
2018-06-20T15:34:00.461Z,27.70
2018-06-20T15:36:34.125Z,27.80
2018-06-20T15:41:30.982Z,27.90
2018-06-20T15:43:59.534Z,27.80
2018-06-20T15:48:55.610Z,27.60
2018-06-20T15:51:23.826Z,27.50
2018-06-20T15:53:52.222Z,27.40
2018-06-20T15:56:20.623Z,27.20
2018-06-20T15:58:49.630Z,27.20
2018-06-20T16:01:18.037Z,27.10
2018-06-20T16:03:46.441Z,27.00
2018-06-20T16:06:14.727Z,26.90
2018-06-20T16:08:48.270Z,26.90
2018-06-20T16:11:16.618Z,26.80
2018-06-20T16:13:45.127Z,26.80
2018-06-20T16:21:20.059Z,27.20
2018-06-20T16:26:27.481Z,27.40
2018-06-20T16:31:29.475Z,27.30
2018-06-20T16:33:58.019Z,27.30
2018-06-20T16:36:26.344Z,27.30
2018-06-20T16:38:54.475Z,27.20
2018-06-20T16:41:23.109Z,27.10
2018-06-20T16:43:51.558Z,27.00
2018-06-20T16:46:19.805Z,26.90
2018-06-20T16:51:16.262Z,26.80
2018-06-20T16:53:45.209Z,26.80
2018-06-20T16:56:13.768Z,26.80
2018-06-20T16:58:42.219Z,26.70
2018-06-20T17:01:16.031Z,26.70
2018-06-20T17:06:12.831Z,26.70
2018-06-20T17:08:41.117Z,26.70
2018-06-20T17:13:42.899Z,26.70
2018-06-20T17:16:16.738Z,26.70
2018-06-20T17:18:50.344Z,26.70
2018-06-20T17:21:24.827Z,26.70
2018-06-20T17:23:58.407Z,26.70
2018-06-20T17:26:26.839Z,26.70
2018-06-20T17:28:55.148Z,26.80
2018-06-20T17:31:23.448Z,26.80
2018-06-20T17:33:51.838Z,26.70
2018-06-20T17:36:20.080Z,26.70
2018-06-20T17:38:48.954Z,26.60
2018-06-20T17:41:17.979Z,26.60
2018-06-20T17:43:46.334Z,26.60
2018-06-20T17:46:15.122Z,26.50
2018-06-20T17:48:43.643Z,26.40
2018-06-20T17:53:40.142Z,26.10
2018-06-20T17:56:08.729Z,26.00
2018-06-20T17:58:37.028Z,25.90
2018-06-20T18:03:38.475Z,25.70
2018-06-20T18:06:12.283Z,25.60
2018-06-20T18:08:46.802Z,25.50
2018-06-20T18:11:16.992Z,25.40
2018-06-20T18:13:50.740Z,25.30
2018-06-20T18:16:24.527Z,25.20
2018-06-20T18:18:53.057Z,25.10
2018-06-20T18:21:21.584Z,25.00
2018-06-20T18:23:49.887Z,24.90
2018-06-20T18:26:18.260Z,24.80
2018-06-20T18:28:46.696Z,24.80
2018-06-20T18:31:14.879Z,24.70
2018-06-20T18:33:43.307Z,24.60
2018-06-20T18:36:11.657Z,24.50
2018-06-20T18:38:39.947Z,24.50
2018-06-20T18:43:37.299Z,24.30
2018-06-20T18:46:05.916Z,24.20
2018-06-20T18:48:34.509Z,24.20
2018-06-20T18:51:03.982Z,24.10
2018-06-20T18:53:32.390Z,24.00
2018-06-20T18:56:00.744Z,24.00
2018-06-20T18:58:34.410Z,23.90
2018-06-20T19:01:08.328Z,23.80
2018-06-20T19:03:42.796Z,23.70
2018-06-20T19:06:16.570Z,23.60
2018-06-20T19:08:59.404Z,23.40
2018-06-20T19:11:27.622Z,23.30
2018-06-20T19:13:57.441Z,23.20
2018-06-20T19:18:54.697Z,22.90
2018-06-20T19:21:23.990Z,22.90
2018-06-20T19:23:52.262Z,22.80
2018-06-20T19:26:20.665Z,22.70
2018-06-20T19:31:17.177Z,22.50
2018-06-20T19:33:46.207Z,22.30
2018-06-20T19:36:14.699Z,22.30
2018-06-20T19:38:43.074Z,22.20
2018-06-20T19:41:11.490Z,22.10
2018-06-20T19:43:45.565Z,22.00
2018-06-20T19:46:14.524Z,21.90
2018-06-20T19:48:43.027Z,21.80
2018-06-20T19:51:11.778Z,21.80
2018-06-20T19:53:40.356Z,21.70
2018-06-20T19:56:08.611Z,21.70
2018-06-20T19:58:37.322Z,21.60
2018-06-20T20:01:06.239Z,21.50
2018-06-20T20:06:04.367Z,21.40
2018-06-20T20:08:33.114Z,21.30
2018-06-20T20:11:01.179Z,21.20
2018-06-20T20:13:29.461Z,21.20
2018-06-20T20:18:25.868Z,21.00
2018-06-20T20:23:24.083Z,20.80
2018-06-20T20:28:20.806Z,20.70
2018-06-20T20:30:49.079Z,20.70
2018-06-20T20:33:17.603Z,20.60
2018-06-20T20:35:46.010Z,20.60
2018-06-20T20:38:14.407Z,20.50
2018-06-20T20:40:42.996Z,20.50
2018-06-20T20:43:11.594Z,20.50
2018-06-20T20:50:39.051Z,20.30
2018-06-20T20:53:07.499Z,20.30
2018-06-20T20:55:36.069Z,20.20
2018-06-20T20:58:04.534Z,20.10
2018-06-20T21:00:32.860Z,20.10
2018-06-20T21:03:01.279Z,20.10
2018-06-20T21:05:29.652Z,20.00
2018-06-20T21:07:57.842Z,20.00
2018-06-20T21:15:22.739Z,19.80
2018-06-20T21:17:51.227Z,19.90
2018-06-20T21:25:16.416Z,19.90
2018-06-20T21:27:44.993Z,19.90
2018-06-20T21:30:13.447Z,20.00
2018-06-20T21:32:41.845Z,19.90
2018-06-20T21:37:38.732Z,19.90
2018-06-20T21:40:11.005Z,19.90
2018-06-20T21:42:39.925Z,19.90
2018-06-20T21:50:05.181Z,19.90
2018-06-20T21:52:33.401Z,19.90
2018-06-20T21:55:02.359Z,19.90
2018-06-20T21:57:30.773Z,19.90
2018-06-20T21:59:59.126Z,19.90
2018-06-20T22:02:27.447Z,20.00
2018-06-20T22:04:55.827Z,20.00
2018-06-20T22:07:24.044Z,20.10
2018-06-20T22:09:52.532Z,20.10
2018-06-20T22:12:20.809Z,20.10
2018-06-20T22:14:49.182Z,20.00
2018-06-20T22:17:18.123Z,20.00
2018-06-20T22:19:46.420Z,19.90
2018-06-20T22:22:14.750Z,19.80
2018-06-20T22:29:39.214Z,19.70
2018-06-20T22:34:35.526Z,19.80
2018-06-20T22:37:03.900Z,19.70
2018-06-20T22:42:00.823Z,19.70
2018-06-20T22:44:29.293Z,19.70
2018-06-20T22:46:58.241Z,19.70
2018-06-20T22:49:26.524Z,19.70
2018-06-20T22:54:24.458Z,19.70
2018-06-20T22:56:52.824Z,19.70
2018-06-20T22:59:21.870Z,19.70
2018-06-20T23:01:50.248Z,19.70
2018-06-20T23:06:46.747Z,19.50
2018-06-20T23:09:15.057Z,19.50
2018-06-20T23:11:46.584Z,19.40
2018-06-20T23:14:15.005Z,19.30
2018-06-20T23:16:44.020Z,19.30
2018-06-20T23:19:12.452Z,19.20
2018-06-20T23:21:42.590Z,19.20
2018-06-20T23:24:10.679Z,19.10
2018-06-20T23:26:39.380Z,19.00
2018-06-20T23:29:07.559Z,19.00
2018-06-20T23:34:03.828Z,18.80
2018-06-20T23:36:32.796Z,18.80
2018-06-20T23:39:01.164Z,18.70
2018-06-20T23:46:25.656Z,18.50
2018-06-20T23:48:53.944Z,18.50
2018-06-20T23:53:50.427Z,18.30
2018-06-20T23:58:46.936Z,18.20
